Terminal Aerodrome Forecast
Issued by NWS Burlington, VT

Current Version | Previous Version | Text Only | Print | Product List | Glossary On
Versions: 1 2 3 4 5 6 7 8 9 10 11 12 13
327 FTUS41 KBTV 222331 TAFBTV TAF KBTV 222331Z 2300/2324 00000KT P6SM SKC FM231300 20004KT P6SM FEW250 FM232300 18005KT P6SM SKC=

USA.gov is the U.S. government's official web portal to all federal, state and local government web resources and services.